sensor_id;sensor_type;location;lat;lon;timestamp;pressure;altitude;pressure_sealevel;temperature;humidity
21728;BME280;11026;50.560;17.852;2023-06-22T00:01:26;99701.66;;;21.52;100.00
21728;BME280;11026;50.560;17.852;2023-06-22T00:03:53;99696.63;;;21.58;100.00
21728;BME280;11026;50.560;17.852;2023-06-22T00:06:21;99696.22;;;21.63;100.00
21728;BME280;11026;50.560;17.852;2023-06-22T00:08:49;99683.91;;;21.70;100.00
21728;BME280;11026;50.560;17.852;2023-06-22T00:11:16;99694.56;;;21.81;100.00
21728;BME280;11026;50.560;17.852;2023-06-22T00:13:44;99690.19;;;21.80;100.00
21728;BME280;11026;50.560;17.852;2023-06-22T00:16:12;99688.44;;;21.70;100.00
21728;BME280;11026;50.560;17.852;2023-06-22T00:18:40;99696.47;;;21.60;100.00
21728;BME280;11026;50.560;17.852;2023-06-22T00:21:14;99692.16;;;21.48;100.00
21728;BME280;11026;50.560;17.852;2023-06-22T00:23:42;99701.53;;;21.11;100.00
21728;BME280;11026;50.560;17.852;2023-06-22T00:26:11;99700.59;;;21.01;100.00
21728;BME280;11026;50.560;17.852;2023-06-22T00:28:40;99708.25;;;20.85;100.00
21728;BME280;11026;50.560;17.852;2023-06-22T00:31:08;99722.25;;;20.68;100.00
21728;BME280;11026;50.560;17.852;2023-06-22T00:33:36;99735.09;;;20.53;100.00
21728;BME280;11026;50.560;17.852;2023-06-22T00:36:04;99738.25;;;20.47;100.00
21728;BME280;11026;50.560;17.852;2023-06-22T00:38:32;99732.78;;;20.37;100.00
21728;BME280;11026;50.560;17.852;2023-06-22T00:40:59;99736.34;;;20.26;100.00
21728;BME280;11026;50.560;17.852;2023-06-22T00:43:27;99730.97;;;20.49;100.00
21728;BME280;11026;50.560;17.852;2023-06-22T00:45:56;99733.88;;;20.57;100.00
21728;BME280;11026;50.560;17.852;2023-06-22T00:48:24;99731.94;;;20.36;100.00
21728;BME280;11026;50.560;17.852;2023-06-22T00:50:54;99743.44;;;20.27;100.00
21728;BME280;11026;50.560;17.852;2023-06-22T00:53:23;99736.84;;;20.20;100.00
21728;BME280;11026;50.560;17.852;2023-06-22T00:55:51;99739.88;;;20.27;100.00
21728;BME280;11026;50.560;17.852;2023-06-22T00:58:19;99741.47;;;20.29;100.00
21728;BME280;11026;50.560;17.852;2023-06-22T01:00:53;99741.94;;;20.46;100.00
21728;BME280;11026;50.560;17.852;2023-06-22T01:03:21;99744.53;;;20.25;100.00
21728;BME280;11026;50.560;17.852;2023-06-22T01:05:49;99742.47;;;20.17;100.00
21728;BME280;11026;50.560;17.852;2023-06-22T01:08:31;99747.72;;;19.96;100.00
21728;BME280;11026;50.560;17.852;2023-06-22T01:11:17;99743.44;;;20.05;100.00
21728;BME280;11026;50.560;17.852;2023-06-22T01:16:35;99745.91;;;19.97;100.00
21728;BME280;11026;50.560;17.852;2023-06-22T01:22:06;99744.66;;;19.89;100.00
21728;BME280;11026;50.560;17.852;2023-06-22T01:24:55;99751.13;;;19.87;100.00
21728;BME280;11026;50.560;17.852;2023-06-22T01:27:56;99744.66;;;19.89;100.00
21728;BME280;11026;50.560;17.852;2023-06-22T01:30:19;99742.97;;;19.88;100.00
21728;BME280;11026;50.560;17.852;2023-06-22T01:32:48;99736.84;;;19.75;100.00
21728;BME280;11026;50.560;17.852;2023-06-22T01:35:20;99742.22;;;19.75;100.00
21728;BME280;11026;50.560;17.852;2023-06-22T01:37:49;99741.00;;;19.90;100.00
21728;BME280;11026;50.560;17.852;2023-06-22T01:40:18;99755.03;;;19.83;100.00
21728;BME280;11026;50.560;17.852;2023-06-22T01:42:48;99761.97;;;19.74;100.00
21728;BME280;11026;50.560;17.852;2023-06-22T01:45:18;99760.88;;;19.65;100.00
21728;BME280;11026;50.560;17.852;2023-06-22T01:47:48;99767.88;;;19.44;100.00
21728;BME280;11026;50.560;17.852;2023-06-22T01:50:17;99782.16;;;19.45;100.00
21728;BME280;11026;50.560;17.852;2023-06-22T01:52:44;99770.25;;;19.60;100.00
21728;BME280;11026;50.560;17.852;2023-06-22T01:55:11;99776.34;;;19.62;100.00
21728;BME280;11026;50.560;17.852;2023-06-22T01:57:39;99782.78;;;19.59;100.00
21728;BME280;11026;50.560;17.852;2023-06-22T02:00:13;99780.44;;;19.55;100.00
21728;BME280;11026;50.560;17.852;2023-06-22T02:02:57;99792.59;;;19.72;100.00
21728;BME280;11026;50.560;17.852;2023-06-22T02:05:34;99791.00;;;19.69;100.00
21728;BME280;11026;50.560;17.852;2023-06-22T02:08:17;99780.97;;;19.60;100.00
21728;BME280;11026;50.560;17.852;2023-06-22T02:10:49;99789.34;;;19.55;100.00
21728;BME280;11026;50.560;17.852;2023-06-22T02:13:19;99781.81;;;19.60;100.00
21728;BME280;11026;50.560;17.852;2023-06-22T02:15:47;99783.50;;;19.50;100.00
21728;BME280;11026;50.560;17.852;2023-06-22T02:18:15;99786.31;;;19.49;100.00
21728;BME280;11026;50.560;17.852;2023-06-22T02:20:42;99794.81;;;19.42;100.00
21728;BME280;11026;50.560;17.852;2023-06-22T02:23:09;99800.66;;;19.36;100.00
21728;BME280;11026;50.560;17.852;2023-06-22T02:25:37;99798.06;;;19.35;100.00
21728;BME280;11026;50.560;17.852;2023-06-22T02:28:06;99803.34;;;19.48;100.00
21728;BME280;11026;50.560;17.852;2023-06-22T02:30:34;99805.75;;;19.39;100.00
21728;BME280;11026;50.560;17.852;2023-06-22T02:33:01;99815.88;;;19.36;100.00
21728;BME280;11026;50.560;17.852;2023-06-22T02:35:31;99815.88;;;19.36;100.00
21728;BME280;11026;50.560;17.852;2023-06-22T02:37:59;99795.81;;;19.53;100.00
21728;BME280;11026;50.560;17.852;2023-06-22T02:40:28;99813.78;;;19.63;100.00
21728;BME280;11026;50.560;17.852;2023-06-22T02:42:57;99812.53;;;19.56;100.00
21728;BME280;11026;50.560;17.852;2023-06-22T02:45:29;99812.41;;;19.58;100.00
21728;BME280;11026;50.560;17.852;2023-06-22T02:48:05;99808.97;;;19.56;100.00
21728;BME280;11026;50.560;17.852;2023-06-22T02:50:33;99799.00;;;19.58;100.00
21728;BME280;11026;50.560;17.852;2023-06-22T02:53:00;99804.50;;;19.56;100.00
21728;BME280;11026;50.560;17.852;2023-06-22T02:55:28;99798.03;;;19.59;100.00
21728;BME280;11026;50.560;17.852;2023-06-22T02:57:55;99797.47;;;19.67;100.00
21728;BME280;11026;50.560;17.852;2023-06-22T03:00:24;99806.38;;;19.78;100.00
21728;BME280;11026;50.560;17.852;2023-06-22T03:02:58;99801.53;;;19.95;100.00
21728;BME280;11026;50.560;17.852;2023-06-22T03:05:26;99803.38;;;20.05;100.00
21728;BME280;11026;50.560;17.852;2023-06-22T03:07:55;99794.56;;;20.14;100.00
21728;BME280;11026;50.560;17.852;2023-06-22T03:10:23;99800.81;;;20.15;100.00
21728;BME280;11026;50.560;17.852;2023-06-22T03:12:50;99803.75;;;20.12;100.00
21728;BME280;11026;50.560;17.852;2023-06-22T03:15:18;99799.34;;;19.88;100.00
21728;BME280;11026;50.560;17.852;2023-06-22T03:17:48;99812.75;;;19.88;100.00
21728;BME280;11026;50.560;17.852;2023-06-22T03:20:16;99807.47;;;19.76;100.00
21728;BME280;11026;50.560;17.852;2023-06-22T03:22:43;99803.97;;;19.86;100.00
21728;BME280;11026;50.560;17.852;2023-06-22T03:25:10;99805.94;;;19.84;100.00
21728;BME280;11026;50.560;17.852;2023-06-22T03:27:41;99800.69;;;19.94;100.00
21728;BME280;11026;50.560;17.852;2023-06-22T03:30:10;99803.84;;;20.10;100.00
21728;BME280;11026;50.560;17.852;2023-06-22T03:32:38;99804.72;;;20.22;100.00
21728;BME280;11026;50.560;17.852;2023-06-22T03:35:08;99806.91;;;20.17;100.00
21728;BME280;11026;50.560;17.852;2023-06-22T03:37:35;99819.59;;;20.15;100.00
21728;BME280;11026;50.560;17.852;2023-06-22T03:40:03;99829.63;;;20.24;100.00
21728;BME280;11026;50.560;17.852;2023-06-22T03:42:34;99831.09;;;20.28;100.00
21728;BME280;11026;50.560;17.852;2023-06-22T03:45:05;99836.72;;;20.48;100.00
21728;BME280;11026;50.560;17.852;2023-06-22T03:47:33;99846.63;;;20.47;100.00
21728;BME280;11026;50.560;17.852;2023-06-22T03:50:01;99848.69;;;20.66;100.00
21728;BME280;11026;50.560;17.852;2023-06-22T03:52:30;99852.59;;;20.62;100.00
21728;BME280;11026;50.560;17.852;2023-06-22T03:55:00;99864.34;;;20.61;100.00
21728;BME280;11026;50.560;17.852;2023-06-22T03:57:27;99861.88;;;20.69;100.00
21728;BME280;11026;50.560;17.852;2023-06-22T03:59:56;99866.03;;;20.62;100.00
21728;BME280;11026;50.560;17.852;2023-06-22T04:02:24;99867.78;;;20.63;100.00
21728;BME280;11026;50.560;17.852;2023-06-22T04:04:52;99877.97;;;20.47;100.00
21728;BME280;11026;50.560;17.852;2023-06-22T04:07:19;99878.09;;;20.34;100.00
21728;BME280;11026;50.560;17.852;2023-06-22T04:09:47;99885.19;;;20.35;100.00
21728;BME280;11026;50.560;17.852;2023-06-22T04:12:15;99892.13;;;20.26;100.00
21728;BME280;11026;50.560;17.852;2023-06-22T04:14:42;99893.13;;;20.36;100.00
21728;BME280;11026;50.560;17.852;2023-06-22T04:17:10;99893.38;;;20.33;100.00
21728;BME280;11026;50.560;17.852;2023-06-22T04:19:37;99883.00;;;20.40;100.00
21728;BME280;11026;50.560;17.852;2023-06-22T04:22:06;99891.44;;;20.58;100.00
21728;BME280;11026;50.560;17.852;2023-06-22T04:24:45;99893.41;;;20.67;100.00
21728;BME280;11026;50.560;17.852;2023-06-22T04:27:13;99898.97;;;20.98;100.00
21728;BME280;11026;50.560;17.852;2023-06-22T04:29:43;99900.03;;;21.18;100.00
21728;BME280;11026;50.560;17.852;2023-06-22T04:32:17;99893.53;;;21.43;100.00
21728;BME280;11026;50.560;17.852;2023-06-22T04:34:45;99894.38;;;21.43;100.00
21728;BME280;11026;50.560;17.852;2023-06-22T04:37:14;99909.84;;;21.62;100.00
21728;BME280;11026;50.560;17.852;2023-06-22T04:39:43;99905.31;;;21.63;100.00
21728;BME280;11026;50.560;17.852;2023-06-22T04:42:12;99904.47;;;21.62;100.00
21728;BME280;11026;50.560;17.852;2023-06-22T04:44:39;99902.09;;;21.69;100.00
21728;BME280;11026;50.560;17.852;2023-06-22T04:47:10;99905.78;;;21.89;100.00
21728;BME280;11026;50.560;17.852;2023-06-22T04:49:38;99900.34;;;22.00;100.00
21728;BME280;11026;50.560;17.852;2023-06-22T04:52:09;99910.22;;;22.10;100.00
21728;BME280;11026;50.560;17.852;2023-06-22T04:54:38;99905.16;;;22.17;100.00
21728;BME280;11026;50.560;17.852;2023-06-22T04:57:07;99906.09;;;22.27;100.00
21728;BME280;11026;50.560;17.852;2023-06-22T04:59:39;99895.09;;;22.40;100.00
21728;BME280;11026;50.560;17.852;2023-06-22T05:02:08;99903.94;;;22.52;100.00
21728;BME280;11026;50.560;17.852;2023-06-22T05:04:37;99890.38;;;22.63;100.00
21728;BME280;11026;50.560;17.852;2023-06-22T05:07:08;99889.16;;;22.77;100.00
21728;BME280;11026;50.560;17.852;2023-06-22T05:09:36;99896.53;;;22.84;100.00
21728;BME280;11026;50.560;17.852;2023-06-22T05:12:03;99888.16;;;22.88;100.00
21728;BME280;11026;50.560;17.852;2023-06-22T05:14:34;99887.94;;;22.91;100.00
21728;BME280;11026;50.560;17.852;2023-06-22T05:17:01;99893.44;;;22.89;100.00
21728;BME280;11026;50.560;17.852;2023-06-22T05:19:32;99896.94;;;23.01;100.00
21728;BME280;11026;50.560;17.852;2023-06-22T05:22:01;99906.88;;;23.10;100.00
21728;BME280;11026;50.560;17.852;2023-06-22T05:24:29;99894.34;;;22.99;100.00
21728;BME280;11026;50.560;17.852;2023-06-22T05:26:56;99896.09;;;23.10;100.00
21728;BME280;11026;50.560;17.852;2023-06-22T05:29:23;99906.19;;;23.18;100.00
21728;BME280;11026;50.560;17.852;2023-06-22T05:31:50;99896.50;;;23.15;100.00
21728;BME280;11026;50.560;17.852;2023-06-22T05:34:20;99896.25;;;23.18;100.00
21728;BME280;11026;50.560;17.852;2023-06-22T05:36:47;99895.97;;;23.31;100.00
21728;BME280;11026;50.560;17.852;2023-06-22T05:39:15;99903.38;;;23.39;100.00
21728;BME280;11026;50.560;17.852;2023-06-22T05:41:45;99886.88;;;23.51;100.00
21728;BME280;11026;50.560;17.852;2023-06-22T05:44:13;99894.72;;;23.54;100.00
21728;BME280;11026;50.560;17.852;2023-06-22T05:46:42;99890.28;;;23.44;99.40
21728;BME280;11026;50.560;17.852;2023-06-22T05:49:15;99893.31;;;23.60;99.10
21728;BME280;11026;50.560;17.852;2023-06-22T05:51:44;99890.19;;;23.65;100.00
21728;BME280;11026;50.560;17.852;2023-06-22T05:54:11;99899.03;;;23.76;99.10
21728;BME280;11026;50.560;17.852;2023-06-22T05:56:40;99903.69;;;23.74;95.60
21728;BME280;11026;50.560;17.852;2023-06-22T05:59:09;99906.41;;;23.74;97.18
21728;BME280;11026;50.560;17.852;2023-06-22T06:01:38;99900.00;;;23.85;96.29
21728;BME280;11026;50.560;17.852;2023-06-22T06:04:07;99906.38;;;23.94;96.91
21728;BME280;11026;50.560;17.852;2023-06-22T06:06:37;99905.38;;;24.04;94.56
21728;BME280;11026;50.560;17.852;2023-06-22T06:09:05;99908.06;;;24.14;92.47
21728;BME280;11026;50.560;17.852;2023-06-22T06:11:34;99917.44;;;24.10;91.83
21728;BME280;11026;50.560;17.852;2023-06-22T06:14:01;99915.03;;;24.07;91.84
21728;BME280;11026;50.560;17.852;2023-06-22T06:16:31;99922.25;;;24.26;92.69
21728;BME280;11026;50.560;17.852;2023-06-22T06:18:59;99916.56;;;24.39;87.66
21728;BME280;11026;50.560;17.852;2023-06-22T06:21:26;99912.28;;;24.46;86.87
21728;BME280;11026;50.560;17.852;2023-06-22T06:23:56;99916.09;;;24.53;84.77
21728;BME280;11026;50.560;17.852;2023-06-22T06:26:26;99910.09;;;24.59;84.19
21728;BME280;11026;50.560;17.852;2023-06-22T06:29:01;99916.59;;;24.66;83.15
21728;BME280;11026;50.560;17.852;2023-06-22T06:31:29;99919.03;;;24.69;81.55
21728;BME280;11026;50.560;17.852;2023-06-22T06:33:58;99904.91;;;24.75;81.97
21728;BME280;11026;50.560;17.852;2023-06-22T06:36:26;99901.59;;;24.82;82.80
21728;BME280;11026;50.560;17.852;2023-06-22T06:38:54;99899.69;;;24.92;80.92
21728;BME280;11026;50.560;17.852;2023-06-22T06:41:21;99893.75;;;24.78;80.70
21728;BME280;11026;50.560;17.852;2023-06-22T06:43:49;99900.25;;;24.95;79.81
21728;BME280;11026;50.560;17.852;2023-06-22T06:46:18;99899.63;;;25.01;81.34
21728;BME280;11026;50.560;17.852;2023-06-22T06:48:46;99907.00;;;25.19;81.20
21728;BME280;11026;50.560;17.852;2023-06-22T06:51:14;99911.41;;;25.38;79.95
21728;BME280;11026;50.560;17.852;2023-06-22T06:53:41;99914.19;;;25.46;77.45
21728;BME280;11026;50.560;17.852;2023-06-22T06:56:09;99918.69;;;25.55;76.47
21728;BME280;11026;50.560;17.852;2023-06-22T06:58:41;99910.78;;;25.62;76.24
21728;BME280;11026;50.560;17.852;2023-06-22T07:01:09;99909.03;;;25.70;75.07
21728;BME280;11026;50.560;17.852;2023-06-22T07:03:37;99909.13;;;25.79;74.99
21728;BME280;11026;50.560;17.852;2023-06-22T07:06:05;99914.31;;;25.90;75.29
21728;BME280;11026;50.560;17.852;2023-06-22T07:08:32;99909.56;;;25.92;72.48
21728;BME280;11026;50.560;17.852;2023-06-22T07:11:00;99918.41;;;25.94;73.88
21728;BME280;11026;50.560;17.852;2023-06-22T07:13:28;99918.00;;;25.89;73.79
21728;BME280;11026;50.560;17.852;2023-06-22T07:15:56;99921.66;;;25.97;73.53
21728;BME280;11026;50.560;17.852;2023-06-22T07:18:24;99922.03;;;26.03;71.21
21728;BME280;11026;50.560;17.852;2023-06-22T07:20:52;99919.38;;;26.11;73.74
21728;BME280;11026;50.560;17.852;2023-06-22T07:23:19;99919.28;;;26.20;72.14
21728;BME280;11026;50.560;17.852;2023-06-22T07:25:47;99916.59;;;26.29;71.83
21728;BME280;11026;50.560;17.852;2023-06-22T07:28:17;99927.38;;;26.38;70.81
21728;BME280;11026;50.560;17.852;2023-06-22T07:30:46;99934.19;;;26.42;68.94
21728;BME280;11026;50.560;17.852;2023-06-22T07:33:13;99931.94;;;26.38;67.97
21728;BME280;11026;50.560;17.852;2023-06-22T07:35:41;99943.88;;;26.45;69.31
21728;BME280;11026;50.560;17.852;2023-06-22T07:38:08;99946.66;;;26.53;68.38
21728;BME280;11026;50.560;17.852;2023-06-22T07:40:36;99948.22;;;26.64;68.77
21728;BME280;11026;50.560;17.852;2023-06-22T07:43:04;99954.94;;;26.78;66.89
21728;BME280;11026;50.560;17.852;2023-06-22T07:45:31;99948.84;;;26.84;64.82
21728;BME280;11026;50.560;17.852;2023-06-22T07:48:03;99957.03;;;26.92;68.39
21728;BME280;11026;50.560;17.852;2023-06-22T07:50:32;99961.81;;;26.98;65.65
21728;BME280;11026;50.560;17.852;2023-06-22T07:53:01;99951.38;;;27.11;67.93
21728;BME280;11026;50.560;17.852;2023-06-22T07:55:29;99955.84;;;27.20;66.79
21728;BME280;11026;50.560;17.852;2023-06-22T07:57:57;99946.91;;;27.36;65.22
21728;BME280;11026;50.560;17.852;2023-06-22T08:00:25;99958.34;;;27.14;64.39
21728;BME280;11026;50.560;17.852;2023-06-22T08:02:52;99953.28;;;27.19;66.48
21728;BME280;11026;50.560;17.852;2023-06-22T08:05:20;99960.97;;;27.40;65.53
21728;BME280;11026;50.560;17.852;2023-06-22T08:07:49;99954.06;;;27.54;63.28
21728;BME280;11026;50.560;17.852;2023-06-22T08:10:23;99957.94;;;27.51;63.08
21728;BME280;11026;50.560;17.852;2023-06-22T08:12:51;99954.72;;;27.56;62.69
21728;BME280;11026;50.560;17.852;2023-06-22T08:15:19;99951.59;;;27.77;64.08
21728;BME280;11026;50.560;17.852;2023-06-22T08:17:46;99950.91;;;27.99;64.39
21728;BME280;11026;50.560;17.852;2023-06-22T08:20:13;99957.72;;;28.11;61.58
21728;BME280;11026;50.560;17.852;2023-06-22T08:22:43;99952.09;;;27.97;60.02
21728;BME280;11026;50.560;17.852;2023-06-22T08:25:11;99954.66;;;27.98;64.25
21728;BME280;11026;50.560;17.852;2023-06-22T08:27:40;99949.53;;;28.03;62.50
21728;BME280;11026;50.560;17.852;2023-06-22T08:30:09;99955.00;;;28.28;61.37
21728;BME280;11026;50.560;17.852;2023-06-22T08:32:37;99956.00;;;28.51;58.94
21728;BME280;11026;50.560;17.852;2023-06-22T08:35:06;99952.88;;;28.79;60.79
21728;BME280;11026;50.560;17.852;2023-06-22T08:37:35;99945.66;;;28.94;57.60
21728;BME280;11026;50.560;17.852;2023-06-22T08:40:06;99949.75;;;28.90;59.91
21728;BME280;11026;50.560;17.852;2023-06-22T08:42:37;99942.28;;;29.00;58.91
21728;BME280;11026;50.560;17.852;2023-06-22T08:45:07;99944.66;;;29.03;59.23
21728;BME280;11026;50.560;17.852;2023-06-22T08:47:35;99944.81;;;28.93;56.51
21728;BME280;11026;50.560;17.852;2023-06-22T08:50:03;99933.06;;;28.93;57.43
21728;BME280;11026;50.560;17.852;2023-06-22T08:52:31;99932.88;;;29.11;58.54
21728;BME280;11026;50.560;17.852;2023-06-22T08:54:59;99936.41;;;29.20;56.78
21728;BME280;11026;50.560;17.852;2023-06-22T08:57:28;99945.19;;;29.30;56.78
21728;BME280;11026;50.560;17.852;2023-06-22T08:59:56;99941.06;;;29.42;56.94
21728;BME280;11026;50.560;17.852;2023-06-22T09:02:26;99937.41;;;29.58;56.23
21728;BME280;11026;50.560;17.852;2023-06-22T09:04:58;99924.81;;;29.17;53.85
21728;BME280;11026;50.560;17.852;2023-06-22T09:07:26;99911.19;;;29.17;55.36
21728;BME280;11026;50.560;17.852;2023-06-22T09:09:55;99913.94;;;29.17;55.06
21728;BME280;11026;50.560;17.852;2023-06-22T09:12:23;99908.88;;;29.06;54.16
21728;BME280;11026;50.560;17.852;2023-06-22T09:14:54;99908.56;;;29.32;56.71
21728;BME280;11026;50.560;17.852;2023-06-22T09:17:22;99911.84;;;29.59;54.54
21728;BME280;11026;50.560;17.852;2023-06-22T09:19:50;99909.06;;;29.90;54.38
21728;BME280;11026;50.560;17.852;2023-06-22T09:22:17;99899.97;;;30.12;53.72
21728;BME280;11026;50.560;17.852;2023-06-22T09:24:45;99904.28;;;30.30;53.04
21728;BME280;11026;50.560;17.852;2023-06-22T09:27:14;99894.41;;;30.44;51.28
21728;BME280;11026;50.560;17.852;2023-06-22T09:29:41;99894.00;;;30.32;52.71
21728;BME280;11026;50.560;17.852;2023-06-22T09:32:09;99887.63;;;30.40;52.86
21728;BME280;11026;50.560;17.852;2023-06-22T09:34:36;99898.06;;;30.51;53.10
21728;BME280;11026;50.560;17.852;2023-06-22T09:37:04;99886.31;;;30.65;51.40
21728;BME280;11026;50.560;17.852;2023-06-22T09:39:32;99891.88;;;30.42;49.71
21728;BME280;11026;50.560;17.852;2023-06-22T09:42:00;99894.59;;;30.04;51.68
21728;BME280;11026;50.560;17.852;2023-06-22T09:44:34;99890.09;;;30.11;50.94
21728;BME280;11026;50.560;17.852;2023-06-22T09:47:03;99886.50;;;30.34;51.69
21728;BME280;11026;50.560;17.852;2023-06-22T09:49:31;99888.28;;;30.27;51.17
21728;BME280;11026;50.560;17.852;2023-06-22T09:52:13;99885.28;;;30.51;51.91
21728;BME280;11026;50.560;17.852;2023-06-22T09:54:47;99886.22;;;30.58;50.88
21728;BME280;11026;50.560;17.852;2023-06-22T09:57:15;99886.47;;;30.49;51.03
21728;BME280;11026;50.560;17.852;2023-06-22T09:59:42;99886.13;;;29.99;51.59
21728;BME280;11026;50.560;17.852;2023-06-22T10:02:10;99892.91;;;30.03;51.65
21728;BME280;11026;50.560;17.852;2023-06-22T10:04:37;99896.50;;;29.81;52.69
21728;BME280;11026;50.560;17.852;2023-06-22T10:07:07;99895.03;;;29.93;52.64
21728;BME280;11026;50.560;17.852;2023-06-22T10:09:34;99886.97;;;30.52;51.96
21728;BME280;11026;50.560;17.852;2023-06-22T10:12:02;99886.56;;;31.00;50.05
21728;BME280;11026;50.560;17.852;2023-06-22T10:14:29;99893.53;;;31.17;48.02
21728;BME280;11026;50.560;17.852;2023-06-22T10:16:57;99886.19;;;31.18;48.46
21728;BME280;11026;50.560;17.852;2023-06-22T10:19:33;99889.00;;;30.73;48.89
21728;BME280;11026;50.560;17.852;2023-06-22T10:22:00;99889.44;;;31.28;49.24
21728;BME280;11026;50.560;17.852;2023-06-22T10:24:28;99878.41;;;31.79;49.63
21728;BME280;11026;50.560;17.852;2023-06-22T10:26:56;99885.63;;;32.36;47.92
21728;BME280;11026;50.560;17.852;2023-06-22T10:29:24;99879.50;;;32.62;45.22
21728;BME280;11026;50.560;17.852;2023-06-22T10:31:53;99878.41;;;32.91;44.41
21728;BME280;11026;50.560;17.852;2023-06-22T10:34:22;99873.72;;;32.85;43.22
21728;BME280;11026;50.560;17.852;2023-06-22T10:36:49;99878.22;;;32.30;45.21
21728;BME280;11026;50.560;17.852;2023-06-22T10:39:17;99874.22;;;32.61;43.58
21728;BME280;11026;50.560;17.852;2023-06-22T10:41:44;99874.59;;;32.92;43.83
21728;BME280;11026;50.560;17.852;2023-06-22T10:44:11;99864.44;;;33.34;42.43
21728;BME280;11026;50.560;17.852;2023-06-22T10:46:45;99865.16;;;33.76;42.49
21728;BME280;11026;50.560;17.852;2023-06-22T10:49:18;99870.47;;;33.97;42.38
21728;BME280;11026;50.560;17.852;2023-06-22T10:51:46;99864.97;;;34.11;41.33
21728;BME280;11026;50.560;17.852;2023-06-22T10:54:13;99859.88;;;34.34;41.52
21728;BME280;11026;50.560;17.852;2023-06-22T10:56:41;99871.50;;;34.49;38.58
21728;BME280;11026;50.560;17.852;2023-06-22T10:59:08;99862.19;;;34.57;39.56
21728;BME280;11026;50.560;17.852;2023-06-22T11:01:35;99863.69;;;34.26;39.70
21728;BME280;11026;50.560;17.852;2023-06-22T11:04:07;99857.97;;;34.28;39.56
21728;BME280;11026;50.560;17.852;2023-06-22T11:06:35;99852.47;;;34.41;38.88
21728;BME280;11026;50.560;17.852;2023-06-22T11:09:02;99852.56;;;34.80;40.21
21728;BME280;11026;50.560;17.852;2023-06-22T11:11:51;99842.75;;;35.04;39.76
21728;BME280;11026;50.560;17.852;2023-06-22T11:14:21;99842.16;;;34.88;39.08
21728;BME280;11026;50.560;17.852;2023-06-22T11:16:55;99839.13;;;35.16;38.46
21728;BME280;11026;50.560;17.852;2023-06-22T11:19:23;99829.59;;;35.51;38.31
21728;BME280;11026;50.560;17.852;2023-06-22T11:21:50;99828.56;;;35.77;36.48
21728;BME280;11026;50.560;17.852;2023-06-22T11:24:18;99827.00;;;36.12;37.72
21728;BME280;11026;50.560;17.852;2023-06-22T11:26:45;99825.00;;;35.69;35.64
21728;BME280;11026;50.560;17.852;2023-06-22T11:29:13;99819.22;;;35.21;35.79
21728;BME280;11026;50.560;17.852;2023-06-22T11:32:02;99813.66;;;34.18;38.63
21728;BME280;11026;50.560;17.852;2023-06-22T11:34:30;99817.06;;;34.07;39.46
21728;BME280;11026;50.560;17.852;2023-06-22T11:36:58;99804.25;;;34.59;39.76
21728;BME280;11026;50.560;17.852;2023-06-22T11:39:26;99805.22;;;35.22;40.97
21728;BME280;11026;50.560;17.852;2023-06-22T11:42:07;99797.34;;;35.64;40.45
21728;BME280;11026;50.560;17.852;2023-06-22T11:44:35;99799.50;;;36.06;38.67
21728;BME280;11026;50.560;17.852;2023-06-22T11:47:02;99796.28;;;36.52;38.43
21728;BME280;11026;50.560;17.852;2023-06-22T11:49:31;99799.81;;;36.89;37.54
21728;BME280;11026;50.560;17.852;2023-06-22T11:51:58;99799.72;;;37.14;35.84
21728;BME280;11026;50.560;17.852;2023-06-22T11:54:27;99792.66;;;37.19;36.72
21728;BME280;11026;50.560;17.852;2023-06-22T11:56:54;99790.88;;;37.24;34.52
21728;BME280;11026;50.560;17.852;2023-06-22T11:59:23;99790.38;;;36.67;34.52
21728;BME280;11026;50.560;17.852;2023-06-22T12:01:50;99787.66;;;35.55;37.02
21728;BME280;11026;50.560;17.852;2023-06-22T12:04:19;99789.44;;;34.66;37.99
21728;BME280;11026;50.560;17.852;2023-06-22T12:06:49;99788.44;;;34.92;37.86
21728;BME280;11026;50.560;17.852;2023-06-22T12:09:16;99782.91;;;35.12;37.71
21728;BME280;11026;50.560;17.852;2023-06-22T12:11:44;99788.22;;;35.89;37.11
21728;BME280;11026;50.560;17.852;2023-06-22T12:14:12;99787.56;;;36.55;36.87
21728;BME280;11026;50.560;17.852;2023-06-22T12:16:40;99775.09;;;37.01;36.12
21728;BME280;11026;50.560;17.852;2023-06-22T12:19:07;99770.16;;;36.18;35.74
21728;BME280;11026;50.560;17.852;2023-06-22T12:21:35;99761.75;;;36.13;35.49
21728;BME280;11026;50.560;17.852;2023-06-22T12:24:02;99754.75;;;35.42;36.39
21728;BME280;11026;50.560;17.852;2023-06-22T12:26:37;99761.94;;;34.73;37.26
21728;BME280;11026;50.560;17.852;2023-06-22T12:29:04;99762.50;;;35.20;39.16
21728;BME280;11026;50.560;17.852;2023-06-22T12:31:32;99760.81;;;36.19;37.74
21728;BME280;11026;50.560;17.852;2023-06-22T12:33:59;99765.25;;;37.05;36.33
21728;BME280;11026;50.560;17.852;2023-06-22T12:36:26;99755.84;;;37.78;35.36
21728;BME280;11026;50.560;17.852;2023-06-22T12:38:54;99757.13;;;38.23;34.92
21728;BME280;11026;50.560;17.852;2023-06-22T12:41:24;99751.22;;;38.31;34.27
21728;BME280;11026;50.560;17.852;2023-06-22T12:43:51;99744.50;;;38.50;34.43
21728;BME280;11026;50.560;17.852;2023-06-22T12:46:19;99743.56;;;38.33;33.69
21728;BME280;11026;50.560;17.852;2023-06-22T12:48:46;99742.88;;;37.55;34.67
21728;BME280;11026;50.560;17.852;2023-06-22T12:51:19;99740.59;;;37.99;34.19
21728;BME280;11026;50.560;17.852;2023-06-22T12:53:47;99732.84;;;38.36;33.15
21728;BME280;11026;50.560;17.852;2023-06-22T12:56:15;99728.75;;;38.51;32.67
21728;BME280;11026;50.560;17.852;2023-06-22T12:58:49;99732.22;;;38.86;33.25
21728;BME280;11026;50.560;17.852;2023-06-22T13:01:16;99737.88;;;39.08;32.26